Toronto, Ohio
Current Conditions -  °F | °C
As of 12:53 AM on Thursday 23 Oct 2014 (Local Time) from KHLG Reporting Station
Few Clouds Few Clouds  
Wind Chill:   Ceiling: Unl
Heat Index:   Visibility: 10mi
Dew Point:   Wind: 6mph
Humidity: 89%   Direction: 320°NW
Pressure: 30.18"   Gusts: NA
Location:  40.46°N, 80.61°W
Report Text: KHLG 230453Z AUTO 32005KT 10SM FEW040 06/04 A3018 RMK AO2 SLP226 T00610044 400940061
Loading
Personal Weather Stations






























Interactive Weather Map
Tropical Storm Tracking
New forecast layout! Learn more

10-Day Weather Forecast

Advertisements
Track Severe Weather on mobile